Terminal Aerodrome Forecast
Issued by NWS

Home | Current Version | Previous Version | Text Only | Print | Product List | Glossary On
Versions: 1 2 3 4 5 6 7 8 9 10 11 12
000
FTUS45 KABQ 191749
TAFFMN
TAF
KFMN 191749Z 1918/2018 26012KT P6SM VCSH BKN045
      TEMPO 1919/1921 -SHRA SCT025 BKN035
     FM200100 28006KT P6SM SCT050 BKN070
     FM201000 VRB05KT 3/4SM BR OVC007
     FM201600 VRB05KT P6SM SKC=

USA.gov is the U.S. government's official web portal to all federal, state and local government web resources and services.